SCLP weather

Los Petiles Airport
Molina, Maule Region, Chile

Public forecast

Using degrees Celsius for public forecast. Weather courtesy of forecast.io.

METAR (pilot weather report)

Closest report is General Freire Airport, 15.9 nm (29.4 km) NNW. Retrieved 2019/05/19 22:00 UTC (12 minutes ago):

SCIC 192200Z 20002KT CAVOK 11/04 Q1017

TAF (pilot weather forecast)

Closest forecast is Comodoro Arturo Merino Benítez International Airport, 110.6 nm (204.8 km) N. Retrieved 2019/05/19 18:00 UTC (4 hours ago):

TAF COR SCEL 191716Z 1918/2018 17006KT 9999 SCT180 BKN200 TX16/1918Z TN06/2011Z BECMG 2000/2002 16004KT 8000 BECMG 2006/2008 SCT080 BKN180 TEMPO 2009/2012 VRB02KT 5000 BR BECMG 2015/2017 17008KT 9999